Cobourg, Canada
Current Conditions -  °F | °C
As of 7:00 PM on Saturday 25 Oct 2014 (Local Time) from CYPQ Reporting Station
Clear Clear  
Wind Chill: 54°   Ceiling: Unl
Heat Index: 54°   Visibility: 9mi
Dew Point: 43°   Wind: 15mph
Humidity: 67%   Direction: 270°W
Pressure: 29.56"   Gusts: 21mph
Location:  43.96°N, 78.17°W
Report Text: CYPQ 252300Z AUTO 27013G18KT 9SM CLR 12/06 A2956 RMK SLP012 DENSITY ALT 800FT
Loading
Personal Weather Stations






























Interactive Weather Map
Tropical Storm Tracking
New forecast layout! Learn more

10-Day Weather Forecast

Advertisements
Track Severe Weather on mobile